Time;durP1;ratioP1;P1;durP2;ratioP2;P2;SDS_P1;SDS_P2;PMS_P1;PMS_P2;Temp;Humidity;BMP_temperature;BMP_pressure;BME280_temperature;BME280_humidity;BME280_pressure;Samples;Min_cycle;Max_cycle;Signal;HPM_P1;HPM_P2
2022/06/24 00:02:01;;;;;;;5.67;2.60;;;18.10;99.90;;;;;;5038241;28;20253;-61
2022/06/24 00:04:30;;;;;;;8.20;2.80;;;18.10;99.90;;;;;;5033598;28;20186;-60
2022/06/24 00:06:56;;;;;;;11.50;2.80;;;18.10;99.90;;;;;;5032807;28;20462;-60
2022/06/24 00:09:26;;;;;;;9.87;2.80;;;18.10;99.90;;;;;;5036462;28;20536;-59
2022/06/24 00:12:24;;;;;;;7.77;2.10;;;18.10;99.90;;;;;;5033926;28;20487;-59
2022/06/24 00:14:58;;;;;;;6.33;2.50;;;18.00;99.90;;;;;;5037416;28;20971;-59
2022/06/24 00:17:28;;;;;;;6.20;1.87;;;18.00;99.90;;;;;;5022300;28;20856;-60
2022/06/24 00:20:03;;;;;;;7.03;2.07;;;18.00;99.90;;;;;;5032052;28;20974;-59
2022/06/24 00:22:30;;;;;;;6.67;2.30;;;18.00;99.90;;;;;;5029743;28;20500;-59
2022/06/24 00:25:07;;;;;;;7.40;2.40;;;17.90;99.90;;;;;;5035677;28;20465;-60
2022/06/24 00:27:33;;;;;;;7.97;2.40;;;17.90;99.90;;;;;;5021474;28;20438;-59
2022/06/24 00:30:06;;;;;;;7.60;2.80;;;17.90;99.90;;;;;;5018453;28;20689;-59
2022/06/24 00:32:32;;;;;;;6.27;2.30;;;17.90;99.90;;;;;;5012659;28;20881;-60
2022/06/24 00:35:07;;;;;;;6.23;2.63;;;17.90;99.90;;;;;;5025677;28;20797;-60
2022/06/24 00:37:33;;;;;;;9.03;2.53;;;17.90;99.90;;;;;;5020002;28;20437;-60
2022/06/24 00:40:24;;;;;;;5.13;2.53;;;17.90;99.90;;;;;;5011209;28;20487;-59
2022/06/24 00:42:50;;;;;;;8.73;2.70;;;17.90;99.90;;;;;;5003806;28;20431;-60
2022/06/24 00:45:45;;;;;;;6.47;2.40;;;17.80;99.90;;;;;;5017832;28;20458;-60
2022/06/24 00:48:14;;;;;;;5.70;2.33;;;17.80;99.90;;;;;;5027100;28;20433;-60
2022/06/24 00:50:44;;;;;;;4.70;2.50;;;17.80;99.90;;;;;;5032373;28;20473;-60
2022/06/24 00:53:10;;;;;;;5.40;2.20;;;17.80;99.90;;;;;;5028536;28;20434;-59
2022/06/24 00:55:37;;;;;;;7.50;2.70;;;17.80;99.90;;;;;;5016350;28;20427;-60
2022/06/24 00:58:05;;;;;;;7.23;2.30;;;17.80;99.90;;;;;;5031692;28;20441;-60
2022/06/24 01:00:32;;;;;;;2.90;2.03;;;17.70;99.90;;;;;;5035715;28;20463;-61
2022/06/24 01:02:59;;;;;;;9.10;2.60;;;17.70;99.90;;;;;;5030920;28;20959;-60
2022/06/24 01:05:25;;;;;;;3.83;2.63;;;17.70;99.90;;;;;;5030808;28;20444;-60
2022/06/24 01:07:51;;;;;;;4.07;2.60;;;17.70;99.90;;;;;;5031753;28;20541;-59
2022/06/24 01:10:16;;;;;;;5.60;2.50;;;17.60;99.90;;;;;;5046488;28;21108;-60
2022/06/24 01:12:42;;;;;;;4.43;2.17;;;17.60;99.90;;;;;;5032633;28;20185;-60
2022/06/24 01:15:08;;;;;;;12.33;2.70;;;17.60;99.90;;;;;;5028802;28;20172;-60
2022/06/24 01:17:34;;;;;;;7.90;2.40;;;17.50;99.90;;;;;;5043516;28;20648;-60
2022/06/24 01:20:00;;;;;;;3.13;2.40;;;17.50;99.90;;;;;;5029244;28;20538;-60
2022/06/24 01:22:26;;;;;;;6.33;2.50;;;17.50;99.90;;;;;;5029903;28;21054;-60
2022/06/24 01:24:53;;;;;;;3.77;2.20;;;17.50;99.90;;;;;;5032298;28;20695;-61
2022/06/24 01:27:19;;;;;;;7.57;2.63;;;17.40;99.90;;;;;;5022795;28;20445;-60
2022/06/24 01:29:46;;;;;;;10.10;2.73;;;17.40;99.90;;;;;;5030869;28;20545;-60
2022/06/24 01:32:12;;;;;;;9.77;2.40;;;17.40;99.90;;;;;;5036203;28;21147;-60
2022/06/24 01:34:38;;;;;;;5.33;2.47;;;17.40;99.90;;;;;;5024859;28;20438;-60
2022/06/24 01:37:05;;;;;;;7.00;3.00;;;17.40;99.90;;;;;;5022195;28;20443;-60
2022/06/24 01:39:30;;;;;;;4.30;2.70;;;17.40;99.90;;;;;;5030922;28;20414;-61
2022/06/24 01:41:57;;;;;;;8.80;3.17;;;17.30;99.90;;;;;;5039180;28;20520;-60
2022/06/24 01:44:23;;;;;;;6.23;3.10;;;17.30;99.90;;;;;;5028048;28;20171;-60
2022/06/24 01:46:50;;;;;;;5.03;2.50;;;17.30;99.90;;;;;;5027136;28;20439;-60
2022/06/24 01:49:16;;;;;;;6.80;2.40;;;17.20;99.90;;;;;;5034692;28;20437;-60
2022/06/24 01:51:44;;;;;;;6.47;2.50;;;17.20;99.90;;;;;;5035502;28;20470;-60
2022/06/24 01:54:10;;;;;;;9.53;2.87;;;17.20;99.90;;;;;;5026699;28;20453;-60
2022/06/24 01:56:36;;;;;;;4.57;2.83;;;17.20;99.90;;;;;;5036464;28;20927;-60
2022/06/24 01:59:02;;;;;;;8.83;3.20;;;17.10;99.90;;;;;;5032258;28;20225;-60
2022/06/24 02:01:28;;;;;;;7.80;2.50;;;17.10;99.90;;;;;;5044639;28;20199;-60
2022/06/24 02:03:54;;;;;;;4.70;2.43;;;17.10;99.90;;;;;;5021771;28;20464;-59
2022/06/24 02:06:20;;;;;;;7.60;2.50;;;17.10;99.90;;;;;;5031430;28;20529;-59
2022/06/24 02:08:46;;;;;;;9.17;2.67;;;17.00;99.90;;;;;;5028080;28;20234;-60
2022/06/24 02:14:07;;;;;;;6.00;2.60;;;17.00;99.90;;;;;;5014228;28;20423;-62
2022/06/24 02:16:33;;;;;;;9.70;3.10;;;17.00;99.90;;;;;;5029344;28;20427;-60
2022/06/24 02:18:59;;;;;;;6.73;2.30;;;17.00;99.90;;;;;;5031008;28;20402;-60
2022/06/24 02:21:26;;;;;;;5.60;2.63;;;16.90;99.90;;;;;;5032262;28;20461;-60
2022/06/24 02:23:52;;;;;;;6.63;3.40;;;16.90;99.90;;;;;;5025561;28;20432;-61
2022/06/24 02:26:18;;;;;;;4.50;2.73;;;16.90;99.90;;;;;;5028922;28;20441;-60
2022/06/24 02:28:44;;;;;;;8.23;2.77;;;16.90;99.90;;;;;;5043299;28;20978;-60
2022/06/24 02:31:10;;;;;;;8.10;2.90;;;16.90;99.90;;;;;;5026251;28;20453;-60
2022/06/24 02:33:36;;;;;;;3.97;2.47;;;16.90;99.90;;;;;;5028539;28;20180;-60
2022/06/24 02:36:02;;;;;;;6.67;3.20;;;16.90;99.90;;;;;;5030498;28;20172;-60
2022/06/24 02:38:28;;;;;;;6.93;3.37;;;16.90;99.90;;;;;;5027054;28;20619;-61
2022/06/24 02:40:54;;;;;;;6.70;4.20;;;16.90;99.90;;;;;;5024424;28;20454;-60
2022/06/24 02:43:27;;;;;;;9.03;3.63;;;16.90;99.90;;;;;;5025927;28;20207;-59
2022/06/24 02:45:59;;;;;;;6.00;3.43;;;16.80;99.90;;;;;;5024697;28;20180;-61
2022/06/24 02:48:25;;;;;;;13.23;3.67;;;16.80;99.90;;;;;;5026226;28;20425;-61
2022/06/24 02:50:57;;;;;;;8.70;3.63;;;16.80;99.90;;;;;;5036600;28;20449;-60
2022/06/24 02:53:23;;;;;;;11.30;3.47;;;16.70;99.90;;;;;;5032581;28;20430;-61
2022/06/24 02:55:52;;;;;;;10.80;3.90;;;16.70;99.90;;;;;;5026818;28;20513;-60
2022/06/24 02:58:18;;;;;;;7.10;3.30;;;16.70;99.90;;;;;;5034550;28;20445;-60
2022/06/24 03:00:44;;;;;;;5.37;3.23;;;16.60;99.90;;;;;;5033244;28;20437;-61
2022/06/24 03:03:12;;;;;;;10.00;3.97;;;16.60;99.90;;;;;;5038698;28;20552;-59
2022/06/24 03:05:38;;;;;;;7.00;4.20;;;16.60;99.90;;;;;;5032787;28;20417;-60
2022/06/24 03:08:04;;;;;;;14.23;4.40;;;16.50;99.90;;;;;;5023664;28;20489;-60
2022/06/24 03:10:30;;;;;;;18.37;4.33;;;16.40;99.90;;;;;;5029155;28;20529;-60
2022/06/24 03:12:56;;;;;;;13.83;5.20;;;16.40;99.90;;;;;;5023718;28;21078;-60
2022/06/24 03:15:21;;;;;;;8.70;3.87;;;16.40;99.90;;;;;;5010063;28;20175;-60
2022/06/24 03:17:47;;;;;;;4.47;3.53;;;16.40;99.90;;;;;;5018782;28;20203;-59
2022/06/24 03:20:13;;;;;;;5.47;3.60;;;16.40;99.90;;;;;;5030086;28;20176;-59
2022/06/24 03:22:39;;;;;;;4.97;3.93;;;16.40;99.90;;;;;;5027054;28;20176;-59
2022/06/24 03:25:05;;;;;;;7.03;3.60;;;16.40;99.90;;;;;;5025052;28;20662;-59
2022/06/24 03:27:31;;;;;;;16.33;4.20;;;16.40;99.90;;;;;;5032323;28;20184;-59
2022/06/24 03:29:57;;;;;;;5.77;3.43;;;16.40;99.90;;;;;;5032903;28;20556;-59
2022/06/24 03:32:23;;;;;;;11.73;4.00;;;16.40;99.90;;;;;;5036870;28;20557;-59
2022/06/24 03:34:49;;;;;;;4.93;3.03;;;16.40;99.90;;;;;;5021354;28;20708;-60
2022/06/24 03:37:14;;;;;;;6.60;3.77;;;16.40;99.90;;;;;;5017699;28;20442;-59
2022/06/24 03:39:40;;;;;;;6.40;3.10;;;16.30;99.90;;;;;;5019873;28;20176;-59
2022/06/24 03:42:06;;;;;;;6.80;3.60;;;16.30;99.90;;;;;;5021651;28;20227;-60
2022/06/24 03:44:32;;;;;;;5.07;3.13;;;16.30;99.90;;;;;;5018232;28;20176;-60
2022/06/24 03:46:58;;;;;;;5.67;3.50;;;16.30;99.90;;;;;;5018531;28;20190;-60
2022/06/24 03:49:23;;;;;;;7.67;4.17;;;16.30;99.90;;;;;;5020745;28;21134;-59
2022/06/24 03:51:49;;;;;;;5.80;3.90;;;16.30;99.90;;;;;;5017846;28;20208;-59
2022/06/24 03:54:15;;;;;;;8.50;4.37;;;16.20;99.90;;;;;;5011305;28;20184;-60
2022/06/24 03:56:41;;;;;;;7.53;3.97;;;16.20;99.90;;;;;;5017053;28;20176;-60
2022/06/24 03:59:07;;;;;;;11.40;4.60;;;16.20;99.90;;;;;;5013915;28;20515;-59
2022/06/24 04:01:33;;;;;;;6.53;4.70;;;16.20;99.90;;;;;;5016679;28;20457;-59
2022/06/24 04:03:59;;;;;;;6.40;3.80;;;16.30;99.90;;;;;;5020104;28;20183;-58
2022/06/24 04:06:24;;;;;;;4.90;4.07;;;16.30;99.90;;;;;;5017190;28;20259;-60
2022/06/24 04:08:52;;;;;;;5.17;3.03;;;16.30;99.90;;;;;;5016587;28;20214;-60
2022/06/24 04:11:18;;;;;;;3.67;2.97;;;16.30;99.90;;;;;;5017053;28;20218;-60
2022/06/24 04:13:44;;;;;;;12.90;6.93;;;16.30;99.90;;;;;;5018699;28;20438;-60
2022/06/24 04:16:10;;;;;;;3.70;2.80;;;16.30;99.90;;;;;;5018573;28;21020;-59
2022/06/24 04:18:37;;;;;;;9.07;3.30;;;16.30;99.90;;;;;;5016787;28;20581;-61
2022/06/24 04:21:09;;;;;;;5.50;3.30;;;16.30;99.90;;;;;;5015972;28;20249;-61
2022/06/24 04:23:35;;;;;;;6.73;4.20;;;16.30;99.90;;;;;;5018675;28;20438;-61
2022/06/24 04:26:00;;;;;;;7.73;3.70;;;16.30;99.90;;;;;;5019147;28;20442;-62
2022/06/24 04:28:26;;;;;;;6.53;3.43;;;16.30;99.90;;;;;;5023471;28;20184;-61
2022/06/24 04:30:51;;;;;;;5.60;3.07;;;16.40;99.90;;;;;;5020055;28;20239;-61
2022/06/24 04:33:17;;;;;;;6.20;3.30;;;16.40;99.90;;;;;;5020505;28;20668;-61
2022/06/24 04:35:43;;;;;;;7.63;3.03;;;16.40;99.90;;;;;;5018884;28;20180;-59
2022/06/24 04:38:08;;;;;;;10.90;3.37;;;16.50;99.90;;;;;;5018883;28;20195;-59
2022/06/24 04:40:34;;;;;;;16.30;4.87;;;16.50;99.90;;;;;;5018843;28;20219;-60
2022/06/24 04:42:59;;;;;;;12.00;4.13;;;16.60;99.90;;;;;;5017064;28;20188;-59
2022/06/24 04:45:25;;;;;;;9.10;4.60;;;16.50;99.90;;;;;;5021199;28;20262;-60
2022/06/24 04:47:51;;;;;;;7.37;4.37;;;16.50;99.90;;;;;;5019264;28;20184;-58
2022/06/24 04:50:16;;;;;;;4.23;3.70;;;16.50;99.90;;;;;;5010723;28;20397;-59
2022/06/24 04:52:42;;;;;;;9.73;4.47;;;16.50;99.90;;;;;;5021472;28;20199;-58
2022/06/24 04:55:08;;;;;;;6.77;4.07;;;16.50;99.90;;;;;;5020032;28;20176;-58
2022/06/24 04:57:34;;;;;;;8.10;4.47;;;16.50;99.90;;;;;;5023528;28;20184;-59
2022/06/24 05:00:00;;;;;;;6.30;4.20;;;16.60;99.90;;;;;;5021399;28;20450;-59
2022/06/24 05:02:25;;;;;;;5.87;3.87;;;16.70;99.90;;;;;;5016981;28;20187;-61
2022/06/24 05:04:51;;;;;;;9.23;5.00;;;16.70;99.90;;;;;;5018651;28;20186;-59
2022/06/24 05:07:17;;;;;;;6.93;5.00;;;16.80;99.90;;;;;;5023259;28;20192;-58
2022/06/24 05:09:43;;;;;;;9.20;5.33;;;16.80;99.90;;;;;;5021779;28;20612;-58
2022/06/24 05:12:09;;;;;;;9.73;5.47;;;16.90;99.90;;;;;;5018310;28;20195;-59
2022/06/24 05:14:35;;;;;;;12.13;6.10;;;17.00;99.90;;;;;;5025734;28;20190;-57
2022/06/24 05:17:01;;;;;;;7.90;5.50;;;17.10;99.90;;;;;;5026514;28;20439;-61
2022/06/24 05:19:27;;;;;;;10.33;6.00;;;17.20;99.90;;;;;;5022067;28;20187;-60
2022/06/24 05:21:52;;;;;;;8.37;5.00;;;17.30;99.90;;;;;;5023372;28;20208;-60
2022/06/24 05:24:18;;;;;;;6.90;4.80;;;17.30;99.90;;;;;;5027940;28;20641;-61
2022/06/24 05:26:45;;;;;;;10.40;4.70;;;17.30;99.90;;;;;;5024333;28;20195;-60
2022/06/24 05:29:11;;;;;;;13.23;4.53;;;17.30;99.90;;;;;;5025277;28;20204;-60
2022/06/24 05:31:37;;;;;;;5.20;4.53;;;17.40;99.90;;;;;;5023448;28;21002;-62
2022/06/24 05:34:03;;;;;;;7.53;4.83;;;17.40;99.90;;;;;;5021007;28;20176;-61
2022/06/24 05:36:28;;;;;;;9.23;5.60;;;17.40;99.90;;;;;;5024810;28;21001;-60
2022/06/24 05:38:54;;;;;;;8.87;6.00;;;17.50;99.90;;;;;;5022727;28;20184;-60
2022/06/24 05:41:20;;;;;;;14.27;6.30;;;17.50;99.90;;;;;;5023303;28;20210;-60
2022/06/24 05:43:46;;;;;;;11.07;5.40;;;17.50;99.90;;;;;;5020548;28;20619;-61
2022/06/24 05:46:12;;;;;;;13.97;5.90;;;17.50;99.90;;;;;;5026812;28;20188;-62
2022/06/24 05:48:39;;;;;;;14.83;5.77;;;17.50;99.90;;;;;;5026054;28;20495;-60
2022/06/24 05:51:12;;;;;;;14.27;7.70;;;17.50;99.90;;;;;;5020329;28;20537;-60
2022/06/24 05:56:23;;;;;;;19.10;10.77;;;17.60;99.90;;;;;;5023641;28;20432;-60
2022/06/24 05:58:50;;;;;;;20.37;10.03;;;17.60;99.90;;;;;;5020832;28;20439;-61
2022/06/24 06:01:17;;;;;;;19.33;8.93;;;17.60;99.90;;;;;;5028148;28;20533;-60
2022/06/24 06:03:43;;;;;;;18.00;8.47;;;17.60;99.90;;;;;;5022216;28;20438;-61
2022/06/24 06:06:09;;;;;;;13.77;7.40;;;17.60;99.90;;;;;;5024681;28;20423;-61
2022/06/24 06:08:39;;;;;;;12.90;6.47;;;17.60;99.90;;;;;;5024822;28;21143;-60
2022/06/24 06:11:19;;;;;;;11.53;5.87;;;17.60;99.90;;;;;;5020691;28;20455;-61
2022/06/24 06:13:46;;;;;;;10.80;6.53;;;17.70;99.90;;;;;;5020365;28;20517;-60
2022/06/24 06:16:12;;;;;;;9.40;5.20;;;17.80;99.90;;;;;;5025536;28;20537;-60
2022/06/24 06:18:38;;;;;;;10.53;5.30;;;17.90;99.90;;;;;;5018370;28;21145;-61
2022/06/24 06:21:06;;;;;;;10.90;4.80;;;18.10;99.90;;;;;;5022164;28;20740;-60
2022/06/24 06:23:32;;;;;;;10.70;5.17;;;18.20;99.90;;;;;;5025285;28;20919;-60
2022/06/24 06:25:59;;;;;;;8.53;4.20;;;18.40;99.90;;;;;;5025095;28;20425;-59
2022/06/24 06:28:25;;;;;;;6.93;3.60;;;18.50;99.90;;;;;;5025908;28;20437;-59
2022/06/24 06:30:50;;;;;;;8.73;4.43;;;18.50;99.90;;;;;;5021590;28;20474;-59
2022/06/24 06:33:17;;;;;;;7.50;4.40;;;18.60;99.90;;;;;;5021741;28;20172;-60
2022/06/24 06:35:42;;;;;;;14.37;4.23;;;18.70;99.90;;;;;;5019580;28;20176;-59
2022/06/24 06:38:08;;;;;;;13.80;5.50;;;18.70;99.90;;;;;;5029483;28;20422;-59
2022/06/24 06:40:35;;;;;;;12.67;5.87;;;18.90;99.90;;;;;;5026956;28;20562;-60
2022/06/24 06:43:02;;;;;;;20.60;7.77;;;19.10;99.90;;;;;;5025837;28;20568;-58
2022/06/24 06:45:28;;;;;;;15.60;7.10;;;19.20;99.90;;;;;;5014863;28;20446;-58
2022/06/24 06:47:54;;;;;;;35.37;15.60;;;19.40;99.90;;;;;;5014461;28;20450;-59
2022/06/24 06:50:19;;;;;;;24.80;11.20;;;19.50;99.90;;;;;;5022715;28;20453;-57
2022/06/24 06:52:45;;;;;;;25.83;11.67;;;19.60;99.90;;;;;;5023264;28;20720;-58
2022/06/24 06:55:11;;;;;;;21.93;9.97;;;19.60;99.90;;;;;;5020129;28;20176;-58
2022/06/24 06:57:37;;;;;;;23.20;9.83;;;19.60;99.90;;;;;;5024189;28;20172;-59
2022/06/24 07:00:05;;;;;;;17.47;8.70;;;19.70;99.90;;;;;;5021806;28;20196;-58
2022/06/24 07:02:30;;;;;;;20.50;10.60;;;19.70;99.90;;;;;;5022428;28;20870;-58
2022/06/24 07:04:56;;;;;;;17.20;9.27;;;19.80;99.90;;;;;;5018105;28;20434;-58
2022/06/24 07:07:22;;;;;;;13.67;6.97;;;19.90;99.90;;;;;;5022830;28;20176;-58
2022/06/24 07:09:47;;;;;;;10.53;6.17;;;19.90;99.90;;;;;;5024413;28;20708;-58
2022/06/24 07:12:13;;;;;;;10.67;5.20;;;20.00;99.90;;;;;;5025315;28;20227;-58
2022/06/24 07:14:42;;;;;;;8.73;4.60;;;20.10;99.90;;;;;;5020741;28;20178;-58
2022/06/24 07:17:09;;;;;;;12.67;4.53;;;20.20;99.90;;;;;;5029747;28;20233;-58
2022/06/24 07:19:35;;;;;;;9.80;3.70;;;20.20;99.90;;;;;;5018111;28;20421;-59
2022/06/24 07:22:01;;;;;;;10.77;4.43;;;20.30;99.90;;;;;;5025147;28;20458;-58
2022/06/24 07:24:27;;;;;;;9.67;3.50;;;20.40;99.90;;;;;;5024690;28;20477;-59
2022/06/24 07:26:53;;;;;;;10.37;2.70;;;20.50;99.90;;;;;;5024534;28;20453;-59
2022/06/24 07:29:19;;;;;;;8.23;2.80;;;20.60;99.90;;;;;;5022310;28;20196;-58
2022/06/24 07:31:47;;;;;;;8.37;2.73;;;20.70;99.90;;;;;;5021397;28;20457;-59
2022/06/24 07:34:16;;;;;;;3.17;2.20;;;20.80;99.90;;;;;;5022667;28;20172;-58
2022/06/24 07:36:42;;;;;;;6.90;2.80;;;20.90;99.90;;;;;;5029004;28;22599;-59
2022/06/24 07:39:09;;;;;;;8.10;2.80;;;20.90;99.90;;;;;;5021932;28;20521;-59
2022/06/24 07:41:35;;;;;;;6.13;2.63;;;20.90;99.90;;;;;;5017498;28;20486;-60
2022/06/24 07:44:01;;;;;;;7.33;2.87;;;20.90;99.90;;;;;;5019189;28;20533;-58
2022/06/24 07:46:27;;;;;;;7.10;3.07;;;20.80;99.90;;;;;;5023082;28;20533;-60
2022/06/24 07:48:53;;;;;;;7.30;2.80;;;20.80;99.90;;;;;;5021763;28;20449;-59
2022/06/24 07:51:21;;;;;;;4.90;2.10;;;20.70;99.90;;;;;;5020130;28;20457;-58
2022/06/24 07:53:47;;;;;;;5.33;2.83;;;20.70;99.90;;;;;;5025712;28;20168;-58
2022/06/24 07:58:57;;;;;;;9.63;2.67;;;20.50;99.90;;;;;;5017343;28;20469;-59
2022/06/24 08:01:23;;;;;;;4.37;2.30;;;20.40;99.90;;;;;;5020359;28;20454;-60
2022/06/24 08:03:49;;;;;;;8.13;2.57;;;20.40;99.90;;;;;;5014538;28;20181;-60
2022/06/24 08:06:15;;;;;;;6.27;2.70;;;20.40;99.90;;;;;;5024526;28;20178;-58
2022/06/24 08:08:41;;;;;;;7.23;2.80;;;20.40;99.90;;;;;;5013163;28;20485;-59
2022/06/24 08:11:07;;;;;;;10.50;3.00;;;20.40;99.90;;;;;;5014218;28;20457;-59
2022/06/24 08:13:32;;;;;;;7.27;2.60;;;20.50;99.90;;;;;;5018396;28;20180;-59
2022/06/24 08:15:59;;;;;;;10.33;3.10;;;20.70;99.90;;;;;;5019941;28;20242;-59
2022/06/24 08:18:26;;;;;;;10.53;3.90;;;20.70;99.90;;;;;;5019999;28;20171;-60
2022/06/24 08:20:51;;;;;;;8.40;3.80;;;20.70;99.90;;;;;;5019944;28;20465;-58
2022/06/24 08:23:17;;;;;;;8.10;4.33;;;20.70;99.90;;;;;;5018927;28;20454;-59
2022/06/24 08:25:42;;;;;;;10.00;4.13;;;20.70;99.90;;;;;;5021261;28;20182;-60
2022/06/24 08:28:08;;;;;;;5.70;4.00;;;20.70;99.90;;;;;;5017404;28;20182;-58
2022/06/24 08:30:37;;;;;;;11.00;4.50;;;20.70;99.90;;;;;;5023369;28;20211;-59
2022/06/24 08:33:03;;;;;;;9.37;3.80;;;20.80;99.90;;;;;;5023257;28;20411;-56
2022/06/24 08:35:29;;;;;;;4.70;3.10;;;20.70;99.90;;;;;;5019892;28;20525;-60
2022/06/24 08:37:56;;;;;;;6.03;3.20;;;20.80;99.90;;;;;;5016559;28;20526;-60
2022/06/24 08:40:24;;;;;;;4.63;2.83;;;20.90;99.90;;;;;;5015370;28;20477;-59
2022/06/24 08:42:58;;;;;;;13.23;3.00;;;21.00;99.90;;;;;;5008950;28;20485;-59
2022/06/24 08:45:25;;;;;;;11.40;3.70;;;21.10;99.90;;;;;;5012409;28;20446;-59
2022/06/24 08:47:51;;;;;;;16.70;4.67;;;21.10;99.90;;;;;;5019274;28;20805;-59
2022/06/24 08:50:18;;;;;;;15.30;5.30;;;21.10;99.90;;;;;;5019685;28;20454;-59
2022/06/24 08:52:51;;;;;;;10.77;5.20;;;21.10;99.90;;;;;;5018755;28;20172;-59
2022/06/24 08:55:18;;;;;;;10.70;5.97;;;21.20;99.90;;;;;;5018022;28;20454;-60
2022/06/24 08:57:45;;;;;;;13.30;6.20;;;21.20;99.90;;;;;;5009862;28;21006;-61
2022/06/24 09:00:11;;;;;;;24.93;12.17;;;21.30;99.90;;;;;;5009105;28;20451;-60
2022/06/24 09:02:37;;;;;;;19.13;9.53;;;21.30;99.90;;;;;;5009874;28;20441;-61
2022/06/24 09:05:13;;;;;;;14.30;9.10;;;21.30;99.90;;;;;;5012503;28;20541;-60
2022/06/24 09:07:39;;;;;;;20.03;6.80;;;21.30;99.90;;;;;;5010429;28;20180;-60
2022/06/24 09:10:09;;;;;;;10.33;5.63;;;21.30;99.90;;;;;;5013757;28;20504;-60
2022/06/24 09:12:47;;;;;;;8.90;4.03;;;21.30;99.90;;;;;;5014515;28;20172;-60
2022/06/24 09:15:14;;;;;;;7.83;4.10;;;21.30;99.90;;;;;;5017594;28;20425;-60
2022/06/24 09:17:40;;;;;;;6.47;3.63;;;21.10;99.90;;;;;;5010490;28;20723;-59
2022/06/24 09:20:27;;;;;;;6.67;4.00;;;21.10;99.90;;;;;;5019665;28;20496;-59
2022/06/24 09:23:09;;;;;;;12.10;4.23;;;21.10;99.90;;;;;;5013845;28;20462;-60
2022/06/24 09:25:48;;;;;;;11.93;3.53;;;21.10;99.90;;;;;;5014833;28;20434;-61
2022/06/24 09:28:24;;;;;;;13.53;5.43;;;21.10;99.90;;;;;;5014021;28;20446;-59
2022/06/24 09:30:58;;;;;;;8.20;3.80;;;21.20;99.90;;;;;;5009195;28;20493;-56
2022/06/24 09:33:23;;;;;;;11.03;3.23;;;21.30;99.90;;;;;;5009103;28;20466;-61
2022/06/24 09:35:59;;;;;;;11.40;3.77;;;21.30;99.90;;;;;;5021499;28;21030;-60
2022/06/24 09:38:25;;;;;;;7.20;3.30;;;21.30;99.90;;;;;;5013059;28;20172;-60
2022/06/24 09:41:07;;;;;;;9.30;3.77;;;21.40;99.90;;;;;;5011800;28;20489;-60
2022/06/24 09:43:33;;;;;;;9.57;4.07;;;21.40;99.90;;;;;;5011450;28;20963;-59
2022/06/24 09:46:00;;;;;;;10.60;3.53;;;21.50;99.90;;;;;;5016296;28;20430;-60
2022/06/24 09:48:32;;;;;;;9.03;3.57;;;21.50;99.90;;;;;;5011584;28;20592;-60
2022/06/24 09:51:07;;;;;;;6.77;3.40;;;21.60;99.90;;;;;;5010685;28;20487;-60
2022/06/24 09:53:35;;;;;;;8.97;4.30;;;21.60;99.90;;;;;;5012150;28;20446;-60
2022/06/24 09:56:02;;;;;;;12.17;6.40;;;21.60;99.90;;;;;;5016269;28;20458;-61
2022/06/24 09:58:29;;;;;;;5.70;3.47;;;21.60;99.90;;;;;;5012902;28;20495;-61
2022/06/24 10:00:55;;;;;;;7.00;3.83;;;21.60;99.90;;;;;;5014843;28;20541;-60
2022/06/24 10:03:21;;;;;;;7.43;3.60;;;21.70;99.90;;;;;;5011039;28;20533;-60
2022/06/24 10:05:49;;;;;;;7.60;4.07;;;21.90;99.90;;;;;;5010844;28;20261;-61
2022/06/24 10:08:16;;;;;;;8.90;5.10;;;21.90;99.90;;;;;;5010160;28;21171;-60
2022/06/24 10:10:51;;;;;;;8.70;4.10;;;22.00;99.90;;;;;;5007802;28;20528;-61
2022/06/24 10:13:34;;;;;;;8.50;3.60;;;22.10;99.90;;;;;;5009845;28;20438;-61
2022/06/24 10:16:05;;;;;;;5.50;3.90;;;22.50;99.90;;;;;;5008140;28;20481;-61
2022/06/24 10:18:40;;;;;;;8.87;4.97;;;22.90;99.40;;;;;;5007835;28;20813;-61
2022/06/24 10:21:08;;;;;;;9.07;4.13;;;23.10;99.20;;;;;;5015046;28;20469;-61
2022/06/24 10:23:38;;;;;;;7.80;2.73;;;23.20;90.50;;;;;;5019834;28;20437;-60
2022/06/24 10:26:21;;;;;;;4.17;2.80;;;23.10;91.10;;;;;;5010627;28;21014;-60
2022/06/24 10:28:59;;;;;;;8.50;3.20;;;23.10;92.20;;;;;;5012132;28;20521;-60
2022/06/24 10:31:53;;;;;;;5.73;3.10;;;23.10;92.30;;;;;;5011088;28;20477;-60
2022/06/24 10:34:25;;;;;;;7.70;2.77;;;23.20;92.40;;;;;;5011080;28;20453;-61
2022/06/24 10:36:57;;;;;;;5.37;2.90;;;23.20;91.50;;;;;;5008240;28;20817;-59
2022/06/24 10:39:26;;;;;;;8.37;3.23;;;23.20;91.70;;;;;;5010845;28;20443;-61
2022/06/24 10:42:00;;;;;;;7.10;3.87;;;23.20;91.50;;;;;;5007990;28;20526;-61
2022/06/24 10:44:25;;;;;;;5.77;3.53;;;23.20;94.60;;;;;;5015037;28;20833;-60
2022/06/24 10:47:12;;;;;;;5.40;3.10;;;23.30;95.00;;;;;;5015746;28;20567;-61
2022/06/24 10:49:55;;;;;;;6.63;3.53;;;23.20;95.20;;;;;;5014625;28;20638;-62
2022/06/24 10:52:45;;;;;;;6.03;4.00;;;23.20;95.20;;;;;;5016165;28;21327;-61
2022/06/24 10:57:50;;;;;;;7.50;3.90;;;23.00;95.20;;;;;;5015896;28;20511;-60
2022/06/24 11:00:23;;;;;;;6.40;3.57;;;22.90;95.60;;;;;;5017354;28;20548;-61
2022/06/24 11:02:52;;;;;;;11.40;4.50;;;22.90;96.00;;;;;;5015131;28;20461;-61
2022/06/24 11:05:23;;;;;;;8.60;4.23;;;22.70;96.70;;;;;;5017444;28;20445;-62
2022/06/24 11:07:49;;;;;;;8.00;3.53;;;22.70;97.30;;;;;;5015912;28;20434;-61
2022/06/24 11:10:17;;;;;;;9.93;3.70;;;22.60;99.80;;;;;;5011086;28;20524;-62
2022/06/24 11:13:00;;;;;;;10.80;4.37;;;22.50;99.90;;;;;;5016176;28;20442;-62
2022/06/24 11:15:35;;;;;;;10.13;4.03;;;22.50;99.90;;;;;;5015317;28;21218;-63
2022/06/24 11:18:15;;;;;;;6.90;3.90;;;22.40;99.90;;;;;;5007950;28;20810;-60
2022/06/24 11:20:49;;;;;;;9.30;3.93;;;22.30;99.90;;;;;;5010450;28;20481;-61
2022/06/24 11:23:17;;;;;;;8.27;3.60;;;22.20;99.90;;;;;;5008102;28;20445;-60
2022/06/24 11:25:51;;;;;;;8.30;3.23;;;22.20;99.90;;;;;;5011019;28;20493;-61
2022/06/24 11:28:25;;;;;;;6.60;3.70;;;22.10;99.90;;;;;;5012517;28;20529;-62
2022/06/24 11:30:53;;;;;;;9.60;4.23;;;22.00;99.90;;;;;;5008013;28;20470;-61
2022/06/24 11:33:19;;;;;;;10.40;3.80;;;21.80;99.90;;;;;;5005401;28;20454;-61
2022/06/24 11:35:47;;;;;;;4.43;2.90;;;21.70;99.90;;;;;;5007258;28;20906;-61
2022/06/24 11:38:13;;;;;;;10.10;3.70;;;21.60;99.90;;;;;;5004676;28;21000;-61
2022/06/24 11:40:40;;;;;;;9.57;4.13;;;21.50;99.90;;;;;;5011708;28;21174;-62
2022/06/24 11:43:11;;;;;;;16.30;3.80;;;21.30;99.90;;;;;;5011631;28;20274;-62
2022/06/24 11:45:41;;;;;;;13.73;5.27;;;21.00;99.90;;;;;;5007990;28;20454;-61
2022/06/24 11:48:10;;;;;;;7.33;4.90;;;20.80;99.90;;;;;;5009131;28;20545;-61
2022/06/24 11:50:37;;;;;;;15.77;5.07;;;20.70;99.90;;;;;;5012650;28;21078;-59
2022/06/24 11:53:04;;;;;;;9.07;4.40;;;20.40;99.90;;;;;;5014217;28;20430;-59
2022/06/24 11:55:35;;;;;;;6.47;3.40;;;20.20;99.90;;;;;;5016134;28;20437;-60
2022/06/24 11:58:03;;;;;;;5.00;2.30;;;20.00;99.90;;;;;;5011769;28;20422;-59
2022/06/24 12:00:35;;;;;;;9.90;3.27;;;19.70;99.90;;;;;;5012922;28;21199;-59
2022/06/24 12:03:02;;;;;;;13.13;4.40;;;19.50;99.90;;;;;;5015643;28;20457;-61
2022/06/24 12:05:30;;;;;;;9.17;3.00;;;19.20;99.90;;;;;;5016050;28;20478;-60
2022/06/24 12:07:58;;;;;;;5.70;3.10;;;19.00;99.90;;;;;;5013718;28;21066;-60
2022/06/24 12:10:24;;;;;;;9.57;3.10;;;18.80;99.90;;;;;;5011554;28;20539;-60
2022/06/24 12:12:56;;;;;;;5.47;2.47;;;18.60;99.90;;;;;;5014089;28;20529;-58
2022/06/24 12:15:24;;;;;;;7.90;2.60;;;18.40;99.90;;;;;;5013703;28;20308;-58
2022/06/24 12:17:51;;;;;;;8.20;2.47;;;18.00;99.90;;;;;;5007033;28;20906;-58
2022/06/24 12:20:22;;;;;;;4.17;1.90;;;17.80;99.90;;;;;;5007761;28;20438;-58
2022/06/24 12:23:14;;;;;;;4.50;2.03;;;17.60;99.90;;;;;;5006062;28;20849;-60
2022/06/24 12:25:44;;;;;;;4.67;2.10;;;17.40;99.90;;;;;;5004629;28;20465;-59
2022/06/24 12:28:22;;;;;;;7.50;2.30;;;17.30;99.90;;;;;;5009053;28;20488;-59
2022/06/24 12:30:55;;;;;;;2.40;2.10;;;17.20;99.90;;;;;;5011699;28;20477;-56
2022/06/24 12:33:22;;;;;;;4.60;2.60;;;17.10;99.90;;;;;;5008571;28;20445;-59
2022/06/24 12:36:01;;;;;;;7.40;2.73;;;17.10;99.90;;;;;;5006776;28;20423;-59
2022/06/24 12:38:26;;;;;;;3.00;2.20;;;17.00;99.90;;;;;;5011147;28;20503;-59
2022/06/24 12:40:52;;;;;;;4.30;2.20;;;16.90;99.90;;;;;;5012864;28;20470;-59
2022/06/24 12:43:18;;;;;;;5.27;2.13;;;16.90;99.90;;;;;;5019760;28;20546;-59
2022/06/24 12:45:43;;;;;;;7.47;2.60;;;16.90;99.90;;;;;;5016989;28;20676;-61
2022/06/24 12:51:03;;;;;;;3.23;1.60;;;16.80;99.90;;;;;;5015496;28;20296;-59
2022/06/24 12:53:30;;;;;;;2.07;1.60;;;16.80;99.90;;;;;;5022891;28;20434;-56
2022/06/24 12:55:56;;;;;;;3.37;1.87;;;16.70;99.90;;;;;;5018642;28;20467;-60
2022/06/24 12:58:22;;;;;;;4.20;2.03;;;16.70;99.90;;;;;;5021799;28;20435;-60
2022/06/24 13:00:48;;;;;;;4.27;1.97;;;16.70;99.90;;;;;;5017803;28;20454;-60
2022/06/24 13:03:18;;;;;;;5.00;2.30;;;16.60;99.90;;;;;;5014444;28;20656;-60